Maersk Magellan — 9V6751 — position and weather

sailwx.info

Track history (hours):
 
Tides and Currents Weather Stations Pressure Air Temp Water Temp Dewpoint Dewpoint Depression Visibility Wind Speed Wind Dir Waves Ship Positions

Maersk Magellan

Last reported at 2016-Apr-28 18:30 UTC. Time now 2016-May-03 08:49 UTC.
Position N 46°11' W 072°55'.

Length 183 m; draft 9.7 m.

Type: Tanker. MMSI: 566549000.

Date/timePositionNaut miles runAvg speedWind from/ knotsBaromVisibWave heightAir tempDewpointWater temp
2016-Apr-28 18:30N 46°11' W 072°55'1213.2
2016-Apr-28 17:33N 46°03' W 073°09'1413.6
2016-Apr-28 16:33N 45°51' W 073°17'1313.4
2016-Apr-28 15:34N 45°40' W 073°28'3 0.1
2016-Apr-26 19:25N 45°37' W 073°30'1 1.5
2016-Apr-26 18:33N 45°38' W 073°29'9 9.3
2016-Apr-26 17:33N 45°47' W 073°22'1010.1
2016-Apr-26 16:33N 45°54' W 073°13'9 9.5
2016-Apr-26 15:33N 46°03' W 073°08'10 9.7
2016-Apr-26 14:34N 46°09' W 072°57'1111.4
2016-Apr-26 13:33N 46°15' W 072°43'  
Track history (hours):
 
Tides and Currents Weather Stations Pressure Air Temp Water Temp Dewpoint Dewpoint Depression Visibility Wind Speed Wind Dir Waves Ship Positions

Maersk Magellan

Last reported at 2016-Apr-28 18:30 UTC. Time now 2016-May-03 08:49 UTC.
Position N 46°11' W 072°55'.

Length 183 m; draft 9.7 m.

Type: Tanker. MMSI: 566549000.

Date/timePositionNaut miles runAvg speedWind from/ knotsBaromVisibWave heightAir tempDewpointWater temp
2016-Apr-28 18:30N 46°11' W 072°55'1213.2
2016-Apr-28 17:33N 46°03' W 073°09'1413.6
2016-Apr-28 16:33N 45°51' W 073°17'1313.4
2016-Apr-28 15:34N 45°40' W 073°28'3 0.1
2016-Apr-26 19:25N 45°37' W 073°30'1 1.5
2016-Apr-26 18:33N 45°38' W 073°29'9 9.3
2016-Apr-26 17:33N 45°47' W 073°22'1010.1
2016-Apr-26 16:33N 45°54' W 073°13'9 9.5
2016-Apr-26 15:33N 46°03' W 073°08'10 9.7
2016-Apr-26 14:34N 46°09' W 072°57'1111.4
2016-Apr-26 13:33N 46°15' W 072°43'  

Dump ship's entire track history